Main page
Satellite images 15-day forecastsClimateMarine weather Cyclones Lightning AirportsFAQ Newsletter About
Weather : Europe Africa North America South America Asia Australia-Oceania Others
Languages Contact

Gloucester, England

Gloucestershire Airport Staverton

latitude: 51-54N, longitude: 002-10W, elevation: 29 m


METAR: EGBJ 191650Z 05007KT 010V080 9999 FEW045 13/01 Q1016
short-TAF: EGBJ 191359Z 1915/1919 07008KT 9999 SCT030
long-TAF: missing

Time: 18:01 (17:01 UTC)

Current weather observation

The report was made 11 minutes ago, at 16:50 UTC  
Wind 07 kt from northeast, varying between north and east
Temperature 13°C
Humidity 44%
Pressure 1016 hPa
Visibility 10 km or more
Few clouds at a height of 4500 ft

Change units

Forecast

The report was made 2 hours and 46 minutes ago, at 14:15 UTC  
Forecast valid from 19 at 15 UTC to 19 at 19 UTC
Wind 08 kt from east/northeast
Visibility 10 km or more
Scattered clouds at a height of 3000 ft
The information on this site is subject to a disclaimer
Weather : Europe Africa North America South America Asia Australia-Oceania Others
Satellite images 15-day forecastsClimateMarine weather Cyclones Lightning AirportsFAQ Languages Contact Newsletter About